Terminal Aerodrome Forecast
Issued by NWS

Home | Current Version | Previous Version | Text Only | Print | Product List | Glossary On
Versions: 1 2 3 4 5 6 7 8 9 10 11 12 13 14 15 16 17 18 19 20 21 22 23 24
000
FTUS41 KOKX 051932 AAA
TAFHPN
TAF AMD
KHPN 051932Z 0520/0618 VRB05KT P6SM FEW030 SCT250
     FM052100 18008KT P6SM SCT035
     FM060000 21004KT P6SM FEW060
     FM060600 VRB02KT 3SM BR SCT004 SCT250
      TEMPO 0609/0612 1SM BR BKN004
     FM061400 17005KT 6SM BR SCT040 BKN250
      AMD NOT SKED=

USA.gov is the U.S. government's official web portal to all federal, state and local government web resources and services.